createdAt,value
2017-11-08T00:02:07.295Z,23.75
2017-11-08T00:04:35.156Z,25.85
2017-11-08T00:07:02.183Z,30.30
2017-11-08T00:09:29.252Z,25.48
2017-11-08T00:14:29.559Z,26.35
2017-11-08T00:16:58.427Z,25.35
2017-11-08T00:19:26.142Z,28.05
2017-11-08T00:21:57.657Z,28.87
2017-11-08T00:24:30.302Z,23.35
2017-11-08T00:26:58.457Z,25.30
2017-11-08T00:29:25.457Z,28.05
2017-11-08T00:31:52.933Z,27.25
2017-11-08T00:36:51.030Z,27.90
2017-11-08T00:39:18.688Z,25.02
2017-11-08T00:41:46.495Z,25.20
2017-11-08T00:44:13.630Z,24.63
2017-11-08T00:46:40.425Z,22.73
2017-11-08T00:49:07.437Z,23.92
2017-11-08T00:51:34.425Z,26.23
2017-11-08T00:54:02.243Z,28.45
2017-11-08T00:56:33.667Z,30.45
2017-11-08T01:01:32.628Z,22.27
2017-11-08T01:04:00.184Z,25.25
2017-11-08T01:06:27.471Z,24.12
2017-11-08T01:08:55.363Z,26.20
2017-11-08T01:11:27.433Z,23.73
2017-11-08T01:13:55.828Z,24.25
2017-11-08T01:16:27.345Z,28.27
2017-11-08T01:18:54.876Z,26.62
2017-11-08T01:21:22.192Z,25.95
2017-11-08T01:23:52.961Z,26.17
2017-11-08T01:26:21.057Z,28.20
2017-11-08T01:28:51.449Z,25.27
2017-11-08T01:31:18.498Z,26.20
2017-11-08T01:36:17.313Z,26.27
2017-11-08T01:38:44.359Z,27.15
2017-11-08T01:41:18.671Z,27.30
2017-11-08T01:43:46.211Z,26.52
2017-11-08T01:48:49.252Z,24.05
2017-11-08T01:51:18.563Z,27.58
2017-11-08T01:56:20.952Z,26.42
2017-11-08T01:58:49.416Z,25.92
2017-11-08T02:01:17.406Z,24.80
2017-11-08T02:03:44.234Z,21.70
2017-11-08T02:06:11.307Z,26.10
2017-11-08T02:08:40.688Z,26.25
2017-11-08T02:11:07.515Z,23.30
2017-11-08T02:13:34.727Z,25.15
2017-11-08T02:16:01.721Z,28.08
2017-11-08T02:18:29.624Z,28.35
2017-11-08T02:20:56.827Z,27.65
2017-11-08T02:23:24.862Z,24.60
2017-11-08T02:25:55.125Z,24.60
2017-11-08T02:28:24.084Z,26.98
2017-11-08T02:30:54.048Z,28.60
2017-11-08T02:33:20.859Z,26.40
2017-11-08T02:35:48.425Z,25.05
2017-11-08T02:38:15.843Z,24.92
2017-11-08T02:40:43.769Z,21.80
2017-11-08T02:43:11.394Z,29.73
2017-11-08T02:45:43.013Z,25.17
2017-11-08T02:48:10.260Z,25.02
2017-11-08T02:50:37.738Z,28.75
2017-11-08T02:53:04.880Z,23.12
2017-11-08T02:55:32.948Z,24.33
2017-11-08T02:58:00.030Z,25.45
2017-11-08T03:00:28.611Z,26.77
2017-11-08T03:02:57.685Z,23.73
2017-11-08T03:05:25.142Z,26.50
2017-11-08T03:07:52.124Z,23.00
2017-11-08T03:10:18.939Z,23.10
2017-11-08T03:12:46.435Z,26.30
2017-11-08T03:17:48.343Z,26.23
2017-11-08T03:20:15.661Z,23.85
2017-11-08T03:22:44.455Z,24.55
2017-11-08T03:25:11.468Z,26.85
2017-11-08T03:27:39.223Z,28.38
2017-11-08T03:30:06.065Z,23.83
2017-11-08T03:32:33.599Z,26.60
2017-11-08T03:35:00.731Z,25.62
2017-11-08T03:37:28.827Z,26.40
2017-11-08T03:39:55.608Z,25.40
2017-11-08T03:42:22.729Z,27.05
2017-11-08T03:44:49.843Z,29.33
2017-11-08T03:47:17.683Z,25.83
2017-11-08T03:49:45.414Z,25.00
2017-11-08T03:52:12.567Z,26.90
2017-11-08T03:54:39.787Z,28.40
2017-11-08T03:57:07.756Z,25.80
2017-11-08T03:59:34.745Z,24.12
2017-11-08T04:02:02.895Z,22.75
2017-11-08T04:04:32.515Z,23.12
2017-11-08T04:06:59.613Z,23.20
2017-11-08T04:09:30.287Z,25.90
2017-11-08T04:11:59.071Z,23.40
2017-11-08T04:14:26.256Z,26.98
2017-11-08T04:16:53.059Z,25.08
2017-11-08T04:19:20.536Z,28.12
2017-11-08T04:21:47.667Z,25.33
2017-11-08T04:24:15.352Z,27.73
2017-11-08T04:26:42.401Z,24.35
2017-11-08T04:29:09.451Z,24.73
2017-11-08T04:31:36.516Z,25.23
2017-11-08T04:34:04.144Z,23.25
2017-11-08T04:36:31.150Z,26.52
2017-11-08T04:38:59.060Z,26.35
2017-11-08T04:41:26.148Z,25.25
2017-11-08T04:43:52.995Z,26.40
2017-11-08T04:46:20.232Z,27.15
2017-11-08T04:48:46.996Z,25.65
2017-11-08T04:51:14.209Z,27.92
2017-11-08T04:53:41.051Z,25.05
2017-11-08T04:56:08.165Z,22.20
2017-11-08T04:58:35.281Z,24.77
2017-11-08T05:01:03.180Z,21.67
2017-11-08T05:03:29.983Z,24.95
2017-11-08T05:05:59.903Z,27.30
2017-11-08T05:11:02.130Z,26.02
2017-11-08T05:16:00.469Z,21.83
2017-11-08T05:18:28.494Z,27.20
2017-11-08T05:20:57.559Z,28.33
2017-11-08T05:23:28.494Z,26.08
2017-11-08T05:25:56.714Z,28.40
2017-11-08T05:28:27.501Z,25.73
2017-11-08T05:30:55.908Z,26.48
2017-11-08T05:33:23.854Z,28.25
2017-11-08T05:35:51.907Z,22.35
2017-11-08T05:40:50.883Z,26.23
2017-11-08T05:43:17.691Z,24.70
2017-11-08T05:45:44.697Z,27.65
2017-11-08T05:48:11.917Z,23.92
2017-11-08T05:50:39.134Z,27.30
2017-11-08T05:53:06.163Z,27.55
2017-11-08T05:55:34.616Z,24.02
2017-11-08T05:58:02.545Z,23.23
2017-11-08T06:00:29.319Z,25.05
2017-11-08T06:02:57.076Z,25.80
2017-11-08T06:05:24.467Z,31.42
2017-11-08T06:07:52.218Z,27.33
2017-11-08T06:10:20.691Z,24.77
2017-11-08T06:12:47.892Z,24.90
2017-11-08T06:15:17.482Z,24.15
2017-11-08T06:17:45.008Z,26.58
2017-11-08T06:20:12.228Z,29.33
2017-11-08T06:22:39.803Z,21.52
2017-11-08T06:25:06.535Z,27.13
2017-11-08T06:27:34.007Z,24.63
2017-11-08T06:30:01.643Z,24.60
2017-11-08T06:32:28.471Z,23.52
2017-11-08T06:34:55.253Z,22.00
2017-11-08T06:37:22.391Z,20.45
2017-11-08T06:39:49.811Z,25.10
2017-11-08T06:42:16.832Z,25.37
2017-11-08T06:44:44.512Z,21.62
2017-11-08T06:52:15.043Z,25.17
2017-11-08T06:57:16.697Z,25.60
2017-11-08T06:59:43.784Z,24.23
2017-11-08T07:02:10.605Z,23.83
2017-11-08T07:04:39.880Z,21.55
2017-11-08T07:07:06.875Z,24.92
2017-11-08T07:09:33.942Z,22.37
2017-11-08T07:14:33.459Z,21.20
2017-11-08T07:17:00.704Z,19.70
2017-11-08T07:19:29.160Z,26.45
2017-11-08T07:21:55.921Z,21.25
2017-11-08T07:24:22.948Z,27.05
2017-11-08T07:26:50.027Z,23.27
2017-11-08T07:29:17.106Z,24.58
2017-11-08T07:31:44.279Z,23.92
2017-11-08T07:34:11.048Z,21.10
2017-11-08T07:39:08.881Z,22.15
2017-11-08T07:41:35.888Z,23.62
2017-11-08T07:44:02.970Z,26.45
2017-11-08T07:46:29.748Z,24.85
2017-11-08T07:48:56.948Z,26.77
2017-11-08T07:51:24.268Z,24.80
2017-11-08T07:53:51.796Z,24.50
2017-11-08T07:56:20.406Z,23.55
2017-11-08T07:58:48.856Z,21.40
2017-11-08T08:01:17.351Z,22.13
2017-11-08T08:03:44.123Z,22.98
2017-11-08T08:06:11.200Z,21.25
2017-11-08T08:08:41.532Z,27.10
2017-11-08T08:11:14.385Z,24.63
2017-11-08T08:13:41.396Z,22.25
2017-11-08T08:16:09.392Z,26.65
2017-11-08T08:18:36.491Z,23.20
2017-11-08T08:21:03.382Z,25.80
2017-11-08T08:23:30.535Z,26.30
2017-11-08T08:28:28.707Z,24.33
2017-11-08T08:30:55.455Z,27.13
2017-11-08T08:33:24.008Z,23.33
2017-11-08T08:35:51.607Z,26.87
2017-11-08T08:38:18.493Z,30.25
2017-11-08T08:40:45.559Z,28.70
2017-11-08T08:43:13.239Z,29.17
2017-11-08T08:45:40.699Z,31.20
2017-11-08T08:48:07.736Z,28.40
2017-11-08T08:50:35.624Z,23.85
2017-11-08T08:53:02.639Z,28.83
2017-11-08T08:55:30.318Z,26.45
2017-11-08T08:58:04.072Z,26.85
2017-11-08T09:00:30.832Z,23.25
2017-11-08T09:02:58.509Z,29.15
2017-11-08T09:05:25.761Z,23.80
2017-11-08T09:07:52.575Z,27.37
2017-11-08T09:10:20.264Z,26.27
2017-11-08T09:17:51.200Z,26.33
2017-11-08T09:20:27.640Z,28.65
2017-11-08T09:22:56.051Z,27.95
2017-11-08T09:30:38.153Z,24.92
2017-11-08T09:35:44.091Z,26.02
2017-11-08T09:50:54.824Z,26.60
2017-11-08T09:53:21.919Z,31.50
2017-11-08T09:55:52.240Z,28.25
2017-11-08T09:58:19.014Z,30.00
2017-11-08T10:00:51.620Z,30.10
2017-11-08T10:03:19.569Z,28.02
2017-11-08T10:05:46.436Z,28.23
2017-11-08T10:08:13.315Z,27.48
2017-11-08T10:10:47.287Z,26.95
2017-11-08T10:13:14.324Z,28.58
2017-11-08T10:18:14.106Z,30.77
2017-11-08T10:20:41.727Z,30.20
2017-11-08T10:23:09.564Z,31.25
2017-11-08T10:25:36.651Z,32.53
2017-11-08T10:28:03.961Z,31.33
2017-11-08T10:30:30.759Z,33.97
2017-11-08T10:32:59.188Z,28.73
2017-11-08T10:35:26.020Z,33.83
2017-11-08T10:37:54.747Z,33.15
2017-11-08T10:40:21.884Z,34.78
2017-11-08T10:42:49.329Z,28.42
2017-11-08T10:45:17.017Z,34.15
2017-11-08T10:47:44.596Z,32.63
2017-11-08T10:50:15.030Z,34.53
2017-11-08T10:52:42.177Z,33.17
2017-11-08T10:55:11.847Z,30.60
2017-11-08T10:57:42.228Z,31.95
2017-11-08T11:00:09.796Z,29.05
2017-11-08T11:02:36.833Z,33.40
2017-11-08T11:05:04.030Z,33.45
2017-11-08T11:15:05.093Z,38.03
2017-11-08T11:20:04.860Z,34.47
2017-11-08T11:22:31.948Z,41.50
2017-11-08T11:25:00.669Z,42.33
2017-11-08T11:27:27.451Z,34.05
2017-11-08T11:29:58.185Z,37.65
2017-11-08T11:32:29.723Z,38.50
2017-11-08T11:57:51.879Z,37.67
2017-11-08T12:00:19.393Z,42.80
2017-11-08T12:02:46.373Z,40.55
2017-11-08T12:05:13.976Z,37.25
2017-11-08T12:07:44.353Z,39.47
2017-11-08T12:10:12.724Z,41.33
2017-11-08T12:17:43.237Z,43.30
2017-11-08T12:22:42.638Z,40.50
2017-11-08T12:25:11.740Z,44.13
2017-11-08T12:27:42.272Z,38.42
2017-11-08T12:30:13.449Z,43.75
2017-11-08T12:35:11.289Z,41.90
2017-11-08T12:38:06.797Z,48.92
2017-11-08T12:40:33.568Z,47.05
2017-11-08T12:43:02.258Z,39.63
2017-11-08T12:45:42.588Z,48.90
2017-11-08T12:48:11.025Z,45.78
2017-11-08T12:50:37.816Z,46.05
2017-11-08T12:53:04.680Z,41.35
2017-11-08T12:58:06.896Z,40.83
2017-11-08T13:00:35.891Z,46.17
2017-11-08T13:03:04.248Z,45.28
2017-11-08T13:05:47.504Z,42.90
2017-11-08T13:10:51.188Z,49.95
2017-11-08T13:13:18.668Z,45.70
2017-11-08T13:15:46.195Z,43.95
2017-11-08T13:18:14.364Z,48.40
2017-11-08T13:20:41.355Z,48.10
2017-11-08T13:23:08.663Z,41.50
2017-11-08T13:25:35.700Z,40.00
2017-11-08T13:28:04.756Z,50.15
2017-11-08T13:30:32.421Z,47.50
2017-11-08T13:32:59.947Z,47.90
2017-11-08T13:35:26.749Z,49.90
2017-11-08T13:37:53.757Z,46.83
2017-11-08T13:40:20.523Z,48.35
2017-11-08T13:42:47.649Z,41.88
2017-11-08T13:45:14.419Z,46.42
2017-11-08T13:47:41.378Z,46.70
2017-11-08T13:50:08.176Z,43.92
2017-11-08T13:52:35.340Z,45.25
2017-11-08T13:55:02.327Z,44.60
2017-11-08T13:57:29.089Z,42.10
2017-11-08T13:59:59.396Z,48.58
2017-11-08T14:02:26.179Z,45.63
2017-11-08T14:04:53.427Z,40.67
2017-11-08T14:07:20.272Z,49.95
2017-11-08T14:09:47.363Z,48.92
2017-11-08T14:12:14.123Z,45.60
2017-11-08T14:14:41.580Z,42.90
2017-11-08T14:19:39.428Z,48.10
2017-11-08T14:22:06.185Z,47.53
2017-11-08T14:24:33.740Z,45.75
2017-11-08T14:27:00.513Z,51.88
2017-11-08T14:29:33.647Z,44.90
2017-11-08T14:32:01.346Z,44.17
2017-11-08T14:34:29.242Z,45.75
2017-11-08T14:36:57.027Z,46.58
2017-11-08T14:39:23.777Z,49.95
2017-11-08T14:41:50.539Z,45.05
2017-11-08T14:44:17.617Z,49.33
2017-11-08T14:46:45.811Z,43.60
2017-11-08T14:49:13.749Z,40.28
2017-11-08T14:51:40.536Z,36.92
2017-11-08T14:54:07.328Z,42.13
2017-11-08T14:56:37.943Z,43.40
2017-11-08T14:59:05.648Z,41.30
2017-11-08T15:01:32.762Z,45.08
2017-11-08T15:03:59.821Z,44.60
2017-11-08T15:06:26.585Z,47.88
2017-11-08T15:08:53.367Z,40.20
2017-11-08T15:11:20.160Z,44.10
2017-11-08T15:13:47.321Z,43.17
2017-11-08T15:16:16.865Z,41.70
2017-11-08T15:18:43.969Z,45.30
2017-11-08T15:21:11.646Z,46.35
2017-11-08T15:23:38.443Z,41.83
2017-11-08T15:26:06.091Z,40.35
2017-11-08T15:28:32.903Z,39.40
2017-11-08T15:30:59.948Z,46.85
2017-11-08T15:33:26.969Z,42.90
2017-11-08T15:35:53.704Z,45.00
2017-11-08T15:38:20.471Z,40.78
2017-11-08T15:40:52.081Z,46.70
2017-11-08T15:43:18.834Z,43.72
2017-11-08T15:45:45.621Z,45.05
2017-11-08T15:48:12.872Z,51.08
2017-11-08T15:50:39.651Z,43.75
2017-11-08T15:53:06.453Z,47.78
2017-11-08T15:55:34.923Z,45.67
2017-11-08T15:58:02.252Z,44.53
2017-11-08T16:00:29.338Z,47.70
2017-11-08T16:02:56.149Z,48.50
2017-11-08T16:05:22.935Z,53.58
2017-11-08T16:07:53.511Z,51.05
2017-11-08T16:10:22.149Z,49.13
2017-11-08T16:12:50.932Z,44.92
2017-11-08T16:15:17.778Z,48.97
2017-11-08T16:17:44.834Z,41.83
2017-11-08T16:20:16.816Z,47.05
2017-11-08T16:22:43.620Z,51.10
2017-11-08T16:25:10.351Z,44.95
2017-11-08T16:27:37.885Z,49.75
2017-11-08T16:30:04.663Z,58.33
2017-11-08T16:32:31.777Z,47.47
2017-11-08T16:35:00.398Z,45.55
2017-11-08T16:37:27.141Z,45.55
2017-11-08T16:47:28.565Z,41.80
2017-11-08T16:49:56.033Z,48.60
2017-11-08T16:52:22.829Z,47.45
2017-11-08T16:57:22.348Z,53.97
2017-11-08T17:02:20.845Z,50.35
2017-11-08T17:04:50.188Z,49.42
2017-11-08T17:07:17.644Z,46.03
2017-11-08T17:14:47.790Z,52.88
2017-11-08T17:19:47.225Z,46.60
2017-11-08T17:22:16.740Z,49.90
2017-11-08T17:24:43.496Z,46.03
2017-11-08T17:27:10.224Z,50.28
2017-11-08T17:29:38.593Z,51.03
2017-11-08T17:34:36.393Z,45.58
2017-11-08T17:37:07.850Z,47.85
2017-11-08T17:39:36.468Z,59.88
2017-11-08T17:42:04.858Z,54.83
2017-11-08T17:44:34.126Z,48.45
2017-11-08T17:47:02.724Z,54.60
2017-11-08T17:49:29.812Z,50.00
2017-11-08T17:51:58.432Z,55.83
2017-11-08T17:54:32.756Z,45.47
2017-11-08T18:04:39.755Z,54.20
2017-11-08T18:07:10.037Z,47.50
2017-11-08T18:12:11.354Z,45.00
2017-11-08T18:14:40.832Z,49.58
2017-11-08T18:27:21.540Z,54.80
2017-11-08T18:29:51.549Z,51.40
2017-11-08T18:32:20.905Z,50.05
2017-11-08T18:40:01.268Z,50.88
2017-11-08T18:50:13.252Z,53.78
2017-11-08T18:52:43.673Z,47.05
2017-11-08T19:02:51.483Z,42.72
2017-11-08T19:05:19.948Z,49.17
2017-11-08T19:10:20.679Z,51.20
2017-11-08T19:12:50.236Z,48.95
2017-11-08T19:20:30.420Z,47.67
2017-11-08T19:25:39.063Z,49.38
2017-11-08T19:28:09.442Z,50.83
2017-11-08T19:33:14.573Z,47.60
2017-11-08T19:40:51.629Z,50.28
2017-11-08T19:43:20.823Z,51.75
2017-11-08T19:45:50.353Z,55.63
2017-11-08T19:48:20.905Z,56.33
2017-11-08T19:50:49.324Z,58.78
2017-11-08T19:55:55.646Z,54.47
2017-11-08T20:06:02.601Z,52.62
2017-11-08T20:08:38.146Z,54.58
2017-11-08T20:13:39.779Z,54.75
2017-11-08T20:16:09.036Z,49.38
2017-11-08T20:21:07.700Z,49.55
2017-11-08T20:31:12.343Z,54.50
2017-11-08T20:33:39.183Z,51.80
2017-11-08T20:36:08.328Z,48.87
2017-11-08T20:46:14.583Z,53.10
2017-11-08T20:48:44.577Z,49.30
2017-11-08T20:51:15.289Z,51.70
2017-11-08T20:53:45.604Z,50.35
2017-11-08T20:58:44.252Z,56.90
2017-11-08T21:01:11.008Z,54.25
2017-11-08T21:03:37.761Z,61.17
2017-11-08T21:06:06.136Z,56.70
2017-11-08T21:11:05.508Z,57.90
2017-11-08T21:16:07.828Z,57.62
2017-11-08T21:23:41.539Z,59.20
2017-11-08T21:28:41.762Z,56.65
2017-11-08T21:31:10.032Z,56.15
2017-11-08T21:33:44.022Z,56.78
2017-11-08T21:41:21.919Z,53.90
2017-11-08T21:46:23.197Z,54.15
2017-11-08T21:48:53.826Z,60.72
2017-11-08T22:01:38.424Z,51.75
2017-11-08T22:11:46.576Z,60.22
2017-11-08T22:14:13.417Z,62.38
2017-11-08T22:16:44.692Z,54.22
2017-11-08T22:21:47.980Z,59.85
2017-11-08T22:24:17.468Z,57.75
2017-11-08T22:26:48.036Z,51.53
2017-11-08T22:36:52.387Z,59.63
2017-11-08T22:39:22.440Z,53.55
2017-11-08T22:41:49.573Z,53.28
2017-11-08T22:44:17.688Z,56.37
2017-11-08T22:49:19.006Z,54.95
2017-11-08T22:51:47.087Z,60.88
2017-11-08T22:59:19.548Z,61.95
2017-11-08T23:01:50.236Z,60.10
2017-11-08T23:04:19.139Z,64.45
2017-11-08T23:11:50.362Z,57.67
2017-11-08T23:14:20.332Z,57.35
2017-11-08T23:16:47.208Z,59.25
2017-11-08T23:21:44.975Z,61.15
2017-11-08T23:24:12.051Z,60.17
2017-11-08T23:29:10.621Z,55.12
2017-11-08T23:31:37.670Z,62.80
2017-11-08T23:34:04.462Z,59.53
2017-11-08T23:36:35.079Z,67.50
2017-11-08T23:41:39.368Z,57.45
2017-11-08T23:49:17.744Z,57.60
2017-11-08T23:54:23.580Z,59.25
